Terminal Aerodrome Forecast
Issued by NWS New Orleans/Baton Rouge, LA

Home | Current Version | Previous Version | Text Only | Print | Product List | Glossary On
Versions: 1 2 3 4 5 6 7 8 9 10 11 12 13 14 15 16 17 18 19 20 21
000
FTUS44 KLIX 181131
TAFBTR
TAF
KBTR 181131Z 1812/1912 14004KT 2SM +RA OVC040
      TEMPO 1813/1817 18008KT 1SM TSRA BKN010CB OVC020
     FM190400 19006KT P6SM BKN008
     FM191000 21004KT 3SM BR BKN003=

USA.gov is the U.S. government's official web portal to all federal, state and local government web resources and services.